sensor_id;sensor_type;location;lat;lon;timestamp;P1;durP1;ratioP1;P2;durP2;ratioP2
68300;SDS011;55146;47.468;18.806;2023-04-15T00:01:27;13.10;;;9.43;;
68300;SDS011;55146;47.468;18.806;2023-04-15T00:03:53;15.47;;;11.10;;
68300;SDS011;55146;47.468;18.806;2023-04-15T00:06:19;12.68;;;8.85;;
68300;SDS011;55146;47.468;18.806;2023-04-15T00:08:46;12.43;;;8.88;;
68300;SDS011;55146;47.468;18.806;2023-04-15T00:11:11;11.90;;;8.57;;
68300;SDS011;55146;47.468;18.806;2023-04-15T00:13:37;13.80;;;9.95;;
68300;SDS011;55146;47.468;18.806;2023-04-15T00:16:03;12.37;;;8.85;;
68300;SDS011;55146;47.468;18.806;2023-04-15T00:18:30;11.63;;;8.75;;
68300;SDS011;55146;47.468;18.806;2023-04-15T00:20:56;13.03;;;9.90;;
68300;SDS011;55146;47.468;18.806;2023-04-15T00:23:21;12.50;;;8.37;;
68300;SDS011;55146;47.468;18.806;2023-04-15T00:25:47;11.90;;;8.60;;
68300;SDS011;55146;47.468;18.806;2023-04-15T00:28:12;12.65;;;8.75;;
68300;SDS011;55146;47.468;18.806;2023-04-15T00:30:37;12.77;;;8.13;;
68300;SDS011;55146;47.468;18.806;2023-04-15T00:33:03;11.70;;;8.40;;
68300;SDS011;55146;47.468;18.806;2023-04-15T00:35:28;11.83;;;8.27;;
68300;SDS011;55146;47.468;18.806;2023-04-15T00:37:56;11.48;;;8.15;;
68300;SDS011;55146;47.468;18.806;2023-04-15T00:40:22;11.38;;;8.65;;
68300;SDS011;55146;47.468;18.806;2023-04-15T00:42:48;9.83;;;6.97;;
68300;SDS011;55146;47.468;18.806;2023-04-15T00:45:14;9.95;;;6.25;;
68300;SDS011;55146;47.468;18.806;2023-04-15T00:47:42;8.30;;;6.50;;
68300;SDS011;55146;47.468;18.806;2023-04-15T00:50:09;8.90;;;6.47;;
68300;SDS011;55146;47.468;18.806;2023-04-15T00:52:35;8.35;;;6.07;;
68300;SDS011;55146;47.468;18.806;2023-04-15T00:55:01;9.17;;;5.70;;
68300;SDS011;55146;47.468;18.806;2023-04-15T00:57:28;8.15;;;5.32;;
68300;SDS011;55146;47.468;18.806;2023-04-15T00:59:55;7.65;;;5.18;;
68300;SDS011;55146;47.468;18.806;2023-04-15T01:02:20;7.68;;;5.78;;
68300;SDS011;55146;47.468;18.806;2023-04-15T01:04:46;7.53;;;5.37;;
68300;SDS011;55146;47.468;18.806;2023-04-15T01:07:11;6.60;;;4.60;;
68300;SDS011;55146;47.468;18.806;2023-04-15T01:09:37;9.17;;;5.47;;
68300;SDS011;55146;47.468;18.806;2023-04-15T01:12:03;7.10;;;4.70;;
68300;SDS011;55146;47.468;18.806;2023-04-15T01:14:29;9.27;;;6.05;;
68300;SDS011;55146;47.468;18.806;2023-04-15T01:16:54;7.83;;;5.10;;
68300;SDS011;55146;47.468;18.806;2023-04-15T01:19:20;7.72;;;5.20;;
68300;SDS011;55146;47.468;18.806;2023-04-15T01:21:46;8.70;;;5.73;;
68300;SDS011;55146;47.468;18.806;2023-04-15T01:24:11;8.40;;;5.35;;
68300;SDS011;55146;47.468;18.806;2023-04-15T01:26:40;8.47;;;5.00;;
68300;SDS011;55146;47.468;18.806;2023-04-15T01:29:05;7.25;;;4.93;;
68300;SDS011;55146;47.468;18.806;2023-04-15T01:31:31;8.57;;;5.37;;
68300;SDS011;55146;47.468;18.806;2023-04-15T01:33:57;8.87;;;5.37;;
68300;SDS011;55146;47.468;18.806;2023-04-15T01:36:22;8.80;;;5.50;;
68300;SDS011;55146;47.468;18.806;2023-04-15T01:38:48;8.03;;;5.30;;
68300;SDS011;55146;47.468;18.806;2023-04-15T01:41:13;8.70;;;6.00;;
68300;SDS011;55146;47.468;18.806;2023-04-15T01:43:39;9.40;;;6.60;;
68300;SDS011;55146;47.468;18.806;2023-04-15T01:46:04;8.13;;;5.22;;
68300;SDS011;55146;47.468;18.806;2023-04-15T01:48:30;7.13;;;4.90;;
68300;SDS011;55146;47.468;18.806;2023-04-15T01:50:56;8.90;;;6.57;;
68300;SDS011;55146;47.468;18.806;2023-04-15T01:53:23;7.90;;;5.05;;
68300;SDS011;55146;47.468;18.806;2023-04-15T01:55:49;7.25;;;4.55;;
68300;SDS011;55146;47.468;18.806;2023-04-15T01:58:16;6.95;;;4.93;;
68300;SDS011;55146;47.468;18.806;2023-04-15T02:00:41;8.80;;;6.10;;
68300;SDS011;55146;47.468;18.806;2023-04-15T02:03:07;8.25;;;5.32;;
68300;SDS011;55146;47.468;18.806;2023-04-15T02:05:33;7.15;;;5.53;;
68300;SDS011;55146;47.468;18.806;2023-04-15T02:07:59;8.20;;;5.23;;
68300;SDS011;55146;47.468;18.806;2023-04-15T02:10:24;7.87;;;5.57;;
68300;SDS011;55146;47.468;18.806;2023-04-15T02:12:50;9.32;;;5.45;;
68300;SDS011;55146;47.468;18.806;2023-04-15T02:15:15;8.37;;;5.23;;
68300;SDS011;55146;47.468;18.806;2023-04-15T02:17:41;8.10;;;4.60;;
68300;SDS011;55146;47.468;18.806;2023-04-15T02:20:09;9.15;;;5.05;;
68300;SDS011;55146;47.468;18.806;2023-04-15T02:22:35;8.45;;;5.70;;
68300;SDS011;55146;47.468;18.806;2023-04-15T02:25:01;8.27;;;6.00;;
68300;SDS011;55146;47.468;18.806;2023-04-15T02:27:26;7.70;;;4.63;;
68300;SDS011;55146;47.468;18.806;2023-04-15T02:29:53;7.62;;;4.72;;
68300;SDS011;55146;47.468;18.806;2023-04-15T02:32:18;8.25;;;4.70;;
68300;SDS011;55146;47.468;18.806;2023-04-15T02:34:44;8.33;;;4.57;;
68300;SDS011;55146;47.468;18.806;2023-04-15T02:37:13;8.40;;;5.25;;
68300;SDS011;55146;47.468;18.806;2023-04-15T02:39:38;8.10;;;4.90;;
68300;SDS011;55146;47.468;18.806;2023-04-15T02:42:03;9.23;;;4.90;;
68300;SDS011;55146;47.468;18.806;2023-04-15T02:44:30;9.07;;;5.60;;
68300;SDS011;55146;47.468;18.806;2023-04-15T02:46:56;7.70;;;4.85;;
68300;SDS011;55146;47.468;18.806;2023-04-15T02:49:22;9.10;;;5.60;;
68300;SDS011;55146;47.468;18.806;2023-04-15T02:51:48;8.55;;;5.57;;
68300;SDS011;55146;47.468;18.806;2023-04-15T02:54:18;7.78;;;5.62;;
68300;SDS011;55146;47.468;18.806;2023-04-15T02:56:44;8.33;;;5.40;;
68300;SDS011;55146;47.468;18.806;2023-04-15T02:59:10;8.82;;;6.05;;
68300;SDS011;55146;47.468;18.806;2023-04-15T03:01:36;7.13;;;5.03;;
68300;SDS011;55146;47.468;18.806;2023-04-15T03:04:01;10.18;;;5.18;;
68300;SDS011;55146;47.468;18.806;2023-04-15T03:06:27;7.53;;;5.27;;
68300;SDS011;55146;47.468;18.806;2023-04-15T03:08:52;8.67;;;5.47;;
68300;SDS011;55146;47.468;18.806;2023-04-15T03:11:18;8.03;;;5.07;;
68300;SDS011;55146;47.468;18.806;2023-04-15T03:13:43;8.25;;;5.47;;
68300;SDS011;55146;47.468;18.806;2023-04-15T03:16:09;8.80;;;5.80;;
68300;SDS011;55146;47.468;18.806;2023-04-15T03:18:35;12.37;;;6.30;;
68300;SDS011;55146;47.468;18.806;2023-04-15T03:21:00;8.83;;;5.63;;
68300;SDS011;55146;47.468;18.806;2023-04-15T03:23:27;9.30;;;6.28;;
68300;SDS011;55146;47.468;18.806;2023-04-15T03:25:52;9.03;;;6.30;;
68300;SDS011;55146;47.468;18.806;2023-04-15T03:28:19;10.25;;;6.20;;
68300;SDS011;55146;47.468;18.806;2023-04-15T03:30:45;9.80;;;6.47;;
68300;SDS011;55146;47.468;18.806;2023-04-15T03:33:10;10.40;;;7.13;;
68300;SDS011;55146;47.468;18.806;2023-04-15T03:35:36;11.60;;;7.43;;
68300;SDS011;55146;47.468;18.806;2023-04-15T03:38:01;11.20;;;7.83;;
68300;SDS011;55146;47.468;18.806;2023-04-15T03:40:27;11.63;;;7.00;;
68300;SDS011;55146;47.468;18.806;2023-04-15T03:42:52;10.07;;;6.53;;
68300;SDS011;55146;47.468;18.806;2023-04-15T03:45:17;12.50;;;8.20;;
68300;SDS011;55146;47.468;18.806;2023-04-15T03:47:43;13.13;;;8.33;;
68300;SDS011;55146;47.468;18.806;2023-04-15T03:50:08;10.93;;;6.97;;
68300;SDS011;55146;47.468;18.806;2023-04-15T03:52:34;10.50;;;7.27;;
68300;SDS011;55146;47.468;18.806;2023-04-15T03:54:59;10.75;;;7.12;;
68300;SDS011;55146;47.468;18.806;2023-04-15T03:57:25;10.20;;;6.43;;
68300;SDS011;55146;47.468;18.806;2023-04-15T03:59:51;11.98;;;7.78;;
68300;SDS011;55146;47.468;18.806;2023-04-15T04:02:16;12.07;;;8.07;;
68300;SDS011;55146;47.468;18.806;2023-04-15T04:04:41;13.70;;;8.53;;
68300;SDS011;55146;47.468;18.806;2023-04-15T04:07:07;13.45;;;7.80;;
68300;SDS011;55146;47.468;18.806;2023-04-15T04:09:38;10.90;;;7.40;;
68300;SDS011;55146;47.468;18.806;2023-04-15T04:12:05;12.25;;;8.05;;
68300;SDS011;55146;47.468;18.806;2023-04-15T04:14:31;11.65;;;8.02;;
68300;SDS011;55146;47.468;18.806;2023-04-15T04:16:56;12.80;;;8.33;;
68300;SDS011;55146;47.468;18.806;2023-04-15T04:19:22;13.03;;;7.60;;
68300;SDS011;55146;47.468;18.806;2023-04-15T04:21:47;13.27;;;8.23;;
68300;SDS011;55146;47.468;18.806;2023-04-15T04:24:12;14.37;;;9.17;;
68300;SDS011;55146;47.468;18.806;2023-04-15T04:26:38;13.10;;;8.97;;
68300;SDS011;55146;47.468;18.806;2023-04-15T04:29:03;13.88;;;8.00;;
68300;SDS011;55146;47.468;18.806;2023-04-15T04:31:28;17.30;;;10.13;;
68300;SDS011;55146;47.468;18.806;2023-04-15T04:33:54;14.63;;;8.87;;
68300;SDS011;55146;47.468;18.806;2023-04-15T04:36:19;12.73;;;8.50;;
68300;SDS011;55146;47.468;18.806;2023-04-15T04:38:45;14.97;;;9.57;;
68300;SDS011;55146;47.468;18.806;2023-04-15T04:41:10;12.77;;;8.03;;
68300;SDS011;55146;47.468;18.806;2023-04-15T04:43:35;14.07;;;7.87;;
68300;SDS011;55146;47.468;18.806;2023-04-15T04:46:01;11.57;;;7.60;;
68300;SDS011;55146;47.468;18.806;2023-04-15T04:48:26;13.90;;;9.13;;
68300;SDS011;55146;47.468;18.806;2023-04-15T04:50:51;13.73;;;8.83;;
68300;SDS011;55146;47.468;18.806;2023-04-15T04:53:17;11.68;;;7.80;;
68300;SDS011;55146;47.468;18.806;2023-04-15T04:55:42;13.70;;;8.87;;
68300;SDS011;55146;47.468;18.806;2023-04-15T04:58:08;16.17;;;9.13;;
68300;SDS011;55146;47.468;18.806;2023-04-15T05:00:33;14.97;;;8.53;;
68300;SDS011;55146;47.468;18.806;2023-04-15T05:02:59;14.83;;;9.03;;
68300;SDS011;55146;47.468;18.806;2023-04-15T05:05:24;12.80;;;8.43;;
68300;SDS011;55146;47.468;18.806;2023-04-15T05:07:50;13.90;;;9.32;;
68300;SDS011;55146;47.468;18.806;2023-04-15T05:10:15;15.10;;;9.27;;
68300;SDS011;55146;47.468;18.806;2023-04-15T05:12:42;15.50;;;8.60;;
68300;SDS011;55146;47.468;18.806;2023-04-15T05:15:08;14.60;;;9.00;;
68300;SDS011;55146;47.468;18.806;2023-04-15T05:17:34;12.75;;;8.32;;
68300;SDS011;55146;47.468;18.806;2023-04-15T05:19:59;12.63;;;8.67;;
68300;SDS011;55146;47.468;18.806;2023-04-15T05:22:25;13.38;;;8.68;;
68300;SDS011;55146;47.468;18.806;2023-04-15T05:24:51;14.13;;;8.30;;
68300;SDS011;55146;47.468;18.806;2023-04-15T05:27:16;15.20;;;9.03;;
68300;SDS011;55146;47.468;18.806;2023-04-15T05:29:43;15.55;;;9.90;;
68300;SDS011;55146;47.468;18.806;2023-04-15T05:32:08;14.00;;;8.90;;
68300;SDS011;55146;47.468;18.806;2023-04-15T05:34:33;14.83;;;7.93;;
68300;SDS011;55146;47.468;18.806;2023-04-15T05:36:59;10.50;;;7.15;;
68300;SDS011;55146;47.468;18.806;2023-04-15T05:39:24;9.37;;;6.53;;
68300;SDS011;55146;47.468;18.806;2023-04-15T05:41:50;8.97;;;6.70;;
68300;SDS011;55146;47.468;18.806;2023-04-15T05:44:16;11.23;;;6.93;;
68300;SDS011;55146;47.468;18.806;2023-04-15T05:46:41;10.53;;;6.97;;
68300;SDS011;55146;47.468;18.806;2023-04-15T05:49:07;10.60;;;6.45;;
68300;SDS011;55146;47.468;18.806;2023-04-15T05:51:32;10.60;;;7.93;;
68300;SDS011;55146;47.468;18.806;2023-04-15T05:53:57;10.83;;;7.60;;
68300;SDS011;55146;47.468;18.806;2023-04-15T05:56:23;12.63;;;7.53;;
68300;SDS011;55146;47.468;18.806;2023-04-15T05:58:50;14.77;;;9.23;;
68300;SDS011;55146;47.468;18.806;2023-04-15T06:01:16;14.90;;;9.70;;
68300;SDS011;55146;47.468;18.806;2023-04-15T06:03:41;14.40;;;10.73;;
68300;SDS011;55146;47.468;18.806;2023-04-15T06:06:07;15.32;;;10.65;;
68300;SDS011;55146;47.468;18.806;2023-04-15T06:08:33;23.13;;;14.13;;
68300;SDS011;55146;47.468;18.806;2023-04-15T06:10:59;24.40;;;16.10;;
68300;SDS011;55146;47.468;18.806;2023-04-15T06:13:25;24.55;;;15.23;;
68300;SDS011;55146;47.468;18.806;2023-04-15T06:15:51;26.20;;;17.10;;
68300;SDS011;55146;47.468;18.806;2023-04-15T06:18:17;24.65;;;16.27;;
68300;SDS011;55146;47.468;18.806;2023-04-15T06:20:42;26.30;;;17.53;;
68300;SDS011;55146;47.468;18.806;2023-04-15T06:23:08;26.33;;;17.40;;
68300;SDS011;55146;47.468;18.806;2023-04-15T06:25:33;29.00;;;17.35;;
68300;SDS011;55146;47.468;18.806;2023-04-15T06:27:58;26.67;;;17.00;;
68300;SDS011;55146;47.468;18.806;2023-04-15T06:30:24;28.70;;;17.00;;
68300;SDS011;55146;47.468;18.806;2023-04-15T06:32:49;28.77;;;18.10;;
68300;SDS011;55146;47.468;18.806;2023-04-15T06:35:15;29.77;;;16.77;;
68300;SDS011;55146;47.468;18.806;2023-04-15T06:37:40;25.97;;;16.90;;
68300;SDS011;55146;47.468;18.806;2023-04-15T06:40:06;22.30;;;16.03;;
68300;SDS011;55146;47.468;18.806;2023-04-15T06:42:32;19.45;;;14.10;;
68300;SDS011;55146;47.468;18.806;2023-04-15T06:44:58;20.23;;;13.73;;
68300;SDS011;55146;47.468;18.806;2023-04-15T06:47:23;19.43;;;13.47;;
68300;SDS011;55146;47.468;18.806;2023-04-15T06:49:49;17.00;;;11.63;;
68300;SDS011;55146;47.468;18.806;2023-04-15T06:52:14;14.23;;;9.70;;
68300;SDS011;55146;47.468;18.806;2023-04-15T06:54:41;18.33;;;10.87;;
68300;SDS011;55146;47.468;18.806;2023-04-15T06:57:06;16.77;;;9.18;;
68300;SDS011;55146;47.468;18.806;2023-04-15T06:59:33;14.10;;;7.57;;
68300;SDS011;55146;47.468;18.806;2023-04-15T07:01:58;12.17;;;7.90;;
68300;SDS011;55146;47.468;18.806;2023-04-15T07:04:24;14.57;;;7.87;;
68300;SDS011;55146;47.468;18.806;2023-04-15T07:06:49;13.93;;;7.32;;
68300;SDS011;55146;47.468;18.806;2023-04-15T07:09:15;9.83;;;5.90;;
68300;SDS011;55146;47.468;18.806;2023-04-15T07:11:40;14.03;;;6.23;;
68300;SDS011;55146;47.468;18.806;2023-04-15T07:14:06;11.32;;;5.60;;
68300;SDS011;55146;47.468;18.806;2023-04-15T07:16:31;10.50;;;6.33;;
68300;SDS011;55146;47.468;18.806;2023-04-15T07:18:56;9.13;;;5.30;;
68300;SDS011;55146;47.468;18.806;2023-04-15T07:21:22;8.67;;;5.60;;
68300;SDS011;55146;47.468;18.806;2023-04-15T07:23:49;8.88;;;6.30;;
68300;SDS011;55146;47.468;18.806;2023-04-15T07:26:14;13.67;;;6.37;;
68300;SDS011;55146;47.468;18.806;2023-04-15T07:28:39;8.00;;;5.27;;
68300;SDS011;55146;47.468;18.806;2023-04-15T07:31:05;8.60;;;5.10;;
68300;SDS011;55146;47.468;18.806;2023-04-15T07:33:31;9.07;;;5.17;;
68300;SDS011;55146;47.468;18.806;2023-04-15T07:35:56;6.80;;;4.40;;
68300;SDS011;55146;47.468;18.806;2023-04-15T07:38:22;5.62;;;4.05;;
68300;SDS011;55146;47.468;18.806;2023-04-15T07:40:47;5.70;;;4.23;;
68300;SDS011;55146;47.468;18.806;2023-04-15T07:43:13;6.30;;;4.22;;
68300;SDS011;55146;47.468;18.806;2023-04-15T07:45:39;6.43;;;4.30;;
68300;SDS011;55146;47.468;18.806;2023-04-15T07:48:04;5.60;;;3.60;;
68300;SDS011;55146;47.468;18.806;2023-04-15T07:50:30;5.25;;;3.62;;
68300;SDS011;55146;47.468;18.806;2023-04-15T07:52:56;5.47;;;3.00;;
68300;SDS011;55146;47.468;18.806;2023-04-15T07:55:21;4.97;;;2.50;;
68300;SDS011;55146;47.468;18.806;2023-04-15T07:57:47;5.00;;;2.60;;
68300;SDS011;55146;47.468;18.806;2023-04-15T08:00:13;4.95;;;3.10;;
68300;SDS011;55146;47.468;18.806;2023-04-15T08:02:40;5.35;;;3.42;;
68300;SDS011;55146;47.468;18.806;2023-04-15T08:05:06;4.68;;;2.92;;
68300;SDS011;55146;47.468;18.806;2023-04-15T08:07:33;5.45;;;3.55;;
68300;SDS011;55146;47.468;18.806;2023-04-15T08:09:58;4.27;;;2.97;;
68300;SDS011;55146;47.468;18.806;2023-04-15T08:12:23;5.07;;;3.67;;
68300;SDS011;55146;47.468;18.806;2023-04-15T08:14:49;5.00;;;3.33;;
68300;SDS011;55146;47.468;18.806;2023-04-15T08:17:15;5.62;;;3.53;;
68300;SDS011;55146;47.468;18.806;2023-04-15T08:19:40;5.27;;;3.37;;
68300;SDS011;55146;47.468;18.806;2023-04-15T08:22:06;7.15;;;3.78;;
68300;SDS011;55146;47.468;18.806;2023-04-15T08:24:32;5.47;;;3.60;;
68300;SDS011;55146;47.468;18.806;2023-04-15T08:26:57;5.05;;;3.62;;
68300;SDS011;55146;47.468;18.806;2023-04-15T08:29:23;7.03;;;3.70;;
68300;SDS011;55146;47.468;18.806;2023-04-15T08:31:49;5.47;;;4.05;;
68300;SDS011;55146;47.468;18.806;2023-04-15T08:34:14;4.50;;;3.23;;
68300;SDS011;55146;47.468;18.806;2023-04-15T08:36:39;4.93;;;2.43;;
68300;SDS011;55146;47.468;18.806;2023-04-15T08:39:05;4.17;;;2.77;;
68300;SDS011;55146;47.468;18.806;2023-04-15T08:41:44;4.00;;;2.10;;
68300;SDS011;55146;47.468;18.806;2023-04-15T08:44:14;4.10;;;2.13;;
68300;SDS011;55146;47.468;18.806;2023-04-15T08:46:40;5.05;;;3.28;;
68300;SDS011;55146;47.468;18.806;2023-04-15T08:49:08;5.12;;;2.45;;
68300;SDS011;55146;47.468;18.806;2023-04-15T08:51:35;4.28;;;2.85;;
68300;SDS011;55146;47.468;18.806;2023-04-15T08:54:02;4.77;;;2.30;;
68300;SDS011;55146;47.468;18.806;2023-04-15T08:56:29;4.62;;;2.97;;
68300;SDS011;55146;47.468;18.806;2023-04-15T08:58:56;5.03;;;3.78;;
68300;SDS011;55146;47.468;18.806;2023-04-15T09:01:23;5.10;;;3.85;;
68300;SDS011;55146;47.468;18.806;2023-04-15T09:03:49;5.87;;;3.50;;
68300;SDS011;55146;47.468;18.806;2023-04-15T09:06:16;5.28;;;3.30;;
68300;SDS011;55146;47.468;18.806;2023-04-15T09:08:41;5.50;;;4.15;;
68300;SDS011;55146;47.468;18.806;2023-04-15T09:11:07;5.50;;;3.70;;
68300;SDS011;55146;47.468;18.806;2023-04-15T09:13:32;5.50;;;3.30;;
68300;SDS011;55146;47.468;18.806;2023-04-15T09:15:57;4.60;;;3.33;;
68300;SDS011;55146;47.468;18.806;2023-04-15T09:18:31;4.43;;;2.70;;
68300;SDS011;55146;47.468;18.806;2023-04-15T09:21:14;3.85;;;2.08;;
68300;SDS011;55146;47.468;18.806;2023-04-15T09:23:41;3.95;;;2.30;;
68300;SDS011;55146;47.468;18.806;2023-04-15T09:26:19;3.62;;;1.95;;
68300;SDS011;55146;47.468;18.806;2023-04-15T09:28:44;4.27;;;2.27;;
68300;SDS011;55146;47.468;18.806;2023-04-15T09:31:10;4.23;;;2.20;;
68300;SDS011;55146;47.468;18.806;2023-04-15T09:33:35;5.65;;;2.70;;
68300;SDS011;55146;47.468;18.806;2023-04-15T09:36:19;4.75;;;2.85;;
68300;SDS011;55146;47.468;18.806;2023-04-15T09:39:02;3.87;;;2.20;;
68300;SDS011;55146;47.468;18.806;2023-04-15T09:41:28;3.80;;;1.70;;
68300;SDS011;55146;47.468;18.806;2023-04-15T09:43:53;4.20;;;2.53;;
68300;SDS011;55146;47.468;18.806;2023-04-15T09:46:18;4.30;;;2.93;;
68300;SDS011;55146;47.468;18.806;2023-04-15T09:48:44;4.43;;;2.65;;
68300;SDS011;55146;47.468;18.806;2023-04-15T09:51:10;4.93;;;3.50;;
68300;SDS011;55146;47.468;18.806;2023-04-15T09:53:35;5.40;;;3.83;;
68300;SDS011;55146;47.468;18.806;2023-04-15T09:56:02;5.83;;;2.80;;
68300;SDS011;55146;47.468;18.806;2023-04-15T09:58:29;4.62;;;2.30;;
68300;SDS011;55146;47.468;18.806;2023-04-15T10:00:56;4.22;;;2.15;;
68300;SDS011;55146;47.468;18.806;2023-04-15T10:03:23;3.95;;;2.47;;
68300;SDS011;55146;47.468;18.806;2023-04-15T10:05:51;3.70;;;2.20;;
68300;SDS011;55146;47.468;18.806;2023-04-15T10:08:18;3.60;;;2.00;;
68300;SDS011;55146;47.468;18.806;2023-04-15T10:10:45;3.72;;;2.12;;
68300;SDS011;55146;47.468;18.806;2023-04-15T10:13:13;3.28;;;1.65;;
68300;SDS011;55146;47.468;18.806;2023-04-15T10:15:42;3.97;;;2.22;;
68300;SDS011;55146;47.468;18.806;2023-04-15T10:18:09;2.93;;;1.30;;
68300;SDS011;55146;47.468;18.806;2023-04-15T10:20:37;3.42;;;2.22;;
68300;SDS011;55146;47.468;18.806;2023-04-15T10:23:03;3.20;;;1.73;;
68300;SDS011;55146;47.468;18.806;2023-04-15T10:25:28;2.93;;;1.20;;
68300;SDS011;55146;47.468;18.806;2023-04-15T10:27:54;3.55;;;1.92;;
68300;SDS011;55146;47.468;18.806;2023-04-15T10:30:21;3.40;;;1.85;;
68300;SDS011;55146;47.468;18.806;2023-04-15T10:32:47;3.10;;;1.40;;
68300;SDS011;55146;47.468;18.806;2023-04-15T10:35:13;3.87;;;2.20;;
68300;SDS011;55146;47.468;18.806;2023-04-15T10:37:40;3.78;;;2.20;;
68300;SDS011;55146;47.468;18.806;2023-04-15T10:40:24;4.03;;;2.20;;
68300;SDS011;55146;47.468;18.806;2023-04-15T10:42:58;3.80;;;2.25;;
68300;SDS011;55146;47.468;18.806;2023-04-15T10:45:35;3.37;;;2.00;;
68300;SDS011;55146;47.468;18.806;2023-04-15T10:48:02;3.90;;;2.20;;
68300;SDS011;55146;47.468;18.806;2023-04-15T10:50:31;3.83;;;2.28;;
68300;SDS011;55146;47.468;18.806;2023-04-15T10:52:58;4.05;;;1.60;;
68300;SDS011;55146;47.468;18.806;2023-04-15T10:55:26;5.05;;;2.33;;
68300;SDS011;55146;47.468;18.806;2023-04-15T10:58:00;3.43;;;1.83;;
68300;SDS011;55146;47.468;18.806;2023-04-15T11:00:32;3.87;;;2.35;;
68300;SDS011;55146;47.468;18.806;2023-04-15T11:03:05;4.95;;;3.33;;
68300;SDS011;55146;47.468;18.806;2023-04-15T11:08:03;3.70;;;2.28;;
68300;SDS011;55146;47.468;18.806;2023-04-15T11:12:58;4.62;;;2.62;;
68300;SDS011;55146;47.468;18.806;2023-04-15T11:17:54;4.10;;;2.90;;
68300;SDS011;55146;47.468;18.806;2023-04-15T11:20:20;4.75;;;3.53;;
68300;SDS011;55146;47.468;18.806;2023-04-15T11:22:49;4.20;;;2.80;;
68300;SDS011;55146;47.468;18.806;2023-04-15T11:25:49;4.07;;;2.80;;
68300;SDS011;55146;47.468;18.806;2023-04-15T11:28:07;3.78;;;2.42;;
68300;SDS011;55146;47.468;18.806;2023-04-15T11:30:33;5.70;;;2.57;;
68300;SDS011;55146;47.468;18.806;2023-04-15T11:33:02;4.45;;;2.97;;
68300;SDS011;55146;47.468;18.806;2023-04-15T11:35:29;3.83;;;2.65;;
68300;SDS011;55146;47.468;18.806;2023-04-15T11:37:55;3.37;;;1.50;;
68300;SDS011;55146;47.468;18.806;2023-04-15T11:40:25;3.72;;;1.90;;
68300;SDS011;55146;47.468;18.806;2023-04-15T11:43:06;7.65;;;2.45;;
68300;SDS011;55146;47.468;18.806;2023-04-15T11:45:57;3.53;;;2.20;;
68300;SDS011;55146;47.468;18.806;2023-04-15T11:48:28;4.00;;;2.10;;
68300;SDS011;55146;47.468;18.806;2023-04-15T11:50:59;5.97;;;2.07;;
68300;SDS011;55146;47.468;18.806;2023-04-15T11:53:45;4.00;;;2.33;;
68300;SDS011;55146;47.468;18.806;2023-04-15T11:56:24;4.53;;;2.20;;
68300;SDS011;55146;47.468;18.806;2023-04-15T11:58:51;3.37;;;2.10;;
68300;SDS011;55146;47.468;18.806;2023-04-15T12:01:57;4.97;;;2.80;;
68300;SDS011;55146;47.468;18.806;2023-04-15T12:04:16;3.77;;;2.53;;
68300;SDS011;55146;47.468;18.806;2023-04-15T12:06:47;4.10;;;2.72;;
68300;SDS011;55146;47.468;18.806;2023-04-15T12:09:12;4.57;;;2.87;;
68300;SDS011;55146;47.468;18.806;2023-04-15T12:11:41;4.47;;;2.73;;
68300;SDS011;55146;47.468;18.806;2023-04-15T12:14:09;5.10;;;3.30;;
68300;SDS011;55146;47.468;18.806;2023-04-15T12:16:36;4.90;;;3.72;;
68300;SDS011;55146;47.468;18.806;2023-04-15T12:19:05;5.25;;;3.08;;
68300;SDS011;55146;47.468;18.806;2023-04-15T12:21:34;4.90;;;2.95;;
68300;SDS011;55146;47.468;18.806;2023-04-15T12:24:02;4.20;;;2.37;;
68300;SDS011;55146;47.468;18.806;2023-04-15T12:26:36;4.65;;;2.08;;
68300;SDS011;55146;47.468;18.806;2023-04-15T12:29:16;4.93;;;2.10;;
68300;SDS011;55146;47.468;18.806;2023-04-15T12:31:48;3.87;;;2.03;;
68300;SDS011;55146;47.468;18.806;2023-04-15T12:34:28;4.00;;;2.23;;
68300;SDS011;55146;47.468;18.806;2023-04-15T12:36:55;4.07;;;2.05;;
68300;SDS011;55146;47.468;18.806;2023-04-15T12:39:25;4.25;;;2.83;;
68300;SDS011;55146;47.468;18.806;2023-04-15T12:41:56;4.65;;;2.20;;
68300;SDS011;55146;47.468;18.806;2023-04-15T12:44:24;5.37;;;2.80;;
68300;SDS011;55146;47.468;18.806;2023-04-15T12:46:50;4.33;;;2.27;;
68300;SDS011;55146;47.468;18.806;2023-04-15T12:49:17;4.72;;;2.30;;
68300;SDS011;55146;47.468;18.806;2023-04-15T12:51:45;4.37;;;2.47;;
68300;SDS011;55146;47.468;18.806;2023-04-15T12:54:15;4.85;;;2.25;;
68300;SDS011;55146;47.468;18.806;2023-04-15T12:56:41;4.55;;;2.75;;
68300;SDS011;55146;47.468;18.806;2023-04-15T12:59:06;4.70;;;2.97;;
68300;SDS011;55146;47.468;18.806;2023-04-15T13:01:32;4.67;;;2.63;;
68300;SDS011;55146;47.468;18.806;2023-04-15T13:03:57;6.07;;;2.40;;
68300;SDS011;55146;47.468;18.806;2023-04-15T13:06:22;4.55;;;2.90;;
68300;SDS011;55146;47.468;18.806;2023-04-15T13:08:48;4.27;;;3.03;;
68300;SDS011;55146;47.468;18.806;2023-04-15T13:11:14;5.10;;;2.53;;
68300;SDS011;55146;47.468;18.806;2023-04-15T13:13:41;4.03;;;2.25;;
68300;SDS011;55146;47.468;18.806;2023-04-15T13:16:06;6.63;;;3.33;;
68300;SDS011;55146;47.468;18.806;2023-04-15T13:18:32;4.63;;;2.83;;
68300;SDS011;55146;47.468;18.806;2023-04-15T13:20:58;4.70;;;2.72;;
68300;SDS011;55146;47.468;18.806;2023-04-15T13:23:24;5.47;;;3.55;;
68300;SDS011;55146;47.468;18.806;2023-04-15T13:25:50;5.33;;;3.40;;
68300;SDS011;55146;47.468;18.806;2023-04-15T13:28:16;6.47;;;3.80;;
68300;SDS011;55146;47.468;18.806;2023-04-15T13:30:41;4.83;;;3.10;;
68300;SDS011;55146;47.468;18.806;2023-04-15T13:33:08;6.62;;;3.08;;
68300;SDS011;55146;47.468;18.806;2023-04-15T13:35:33;4.78;;;3.78;;
68300;SDS011;55146;47.468;18.806;2023-04-15T13:37:59;4.63;;;3.03;;
68300;SDS011;55146;47.468;18.806;2023-04-15T13:40:24;4.97;;;3.13;;
68300;SDS011;55146;47.468;18.806;2023-04-15T13:42:50;17.43;;;8.50;;
68300;SDS011;55146;47.468;18.806;2023-04-15T13:45:17;16.23;;;6.03;;
68300;SDS011;55146;47.468;18.806;2023-04-15T13:47:43;7.40;;;4.07;;
68300;SDS011;55146;47.468;18.806;2023-04-15T13:50:08;4.97;;;3.13;;
68300;SDS011;55146;47.468;18.806;2023-04-15T13:52:34;4.32;;;2.67;;
68300;SDS011;55146;47.468;18.806;2023-04-15T13:54:59;3.77;;;2.00;;
68300;SDS011;55146;47.468;18.806;2023-04-15T13:57:25;4.50;;;2.87;;
68300;SDS011;55146;47.468;18.806;2023-04-15T13:59:50;4.27;;;2.40;;
68300;SDS011;55146;47.468;18.806;2023-04-15T14:02:16;6.62;;;2.92;;
68300;SDS011;55146;47.468;18.806;2023-04-15T14:04:42;3.37;;;1.40;;
68300;SDS011;55146;47.468;18.806;2023-04-15T14:07:07;3.80;;;1.80;;
68300;SDS011;55146;47.468;18.806;2023-04-15T14:09:32;8.70;;;4.37;;
68300;SDS011;55146;47.468;18.806;2023-04-15T14:11:58;4.15;;;2.05;;
68300;SDS011;55146;47.468;18.806;2023-04-15T14:14:25;4.45;;;2.85;;
68300;SDS011;55146;47.468;18.806;2023-04-15T14:16:50;5.87;;;3.67;;
68300;SDS011;55146;47.468;18.806;2023-04-15T14:19:16;4.30;;;2.33;;
68300;SDS011;55146;47.468;18.806;2023-04-15T14:21:41;3.28;;;1.75;;
68300;SDS011;55146;47.468;18.806;2023-04-15T14:24:07;3.53;;;1.73;;
68300;SDS011;55146;47.468;18.806;2023-04-15T14:26:32;4.63;;;2.30;;
68300;SDS011;55146;47.468;18.806;2023-04-15T14:28:57;3.63;;;2.20;;
68300;SDS011;55146;47.468;18.806;2023-04-15T14:31:23;4.18;;;2.25;;
68300;SDS011;55146;47.468;18.806;2023-04-15T14:33:48;3.80;;;1.67;;